YPTN/KTR METAR and TAF weather

Enter ICAO airport designator
Station Type Date Time Source
YPTN METAR 2024/04/17 19:30 UTC NOAA

YPTN 171930Z AUTO 13005KT 9999 // OVC014 25/24 Q1010 RF00.0/000.2


Station Type Date Time Source
YPTN Decoded METAR 2024/04/17 19:30 UTC NOAA

Tindal / Katherine, Australia (YPTN) 14-26S 132-16E 109M
Apr 17, 2024 - 03:30 PM EDT / 2024.04.17 1930 UTC
Wind: from the SE (130 degrees) at 6 MPH (5 KT):0
Visibility: greater than 7 mile(s):0
Sky conditions: overcast
Temperature: 77 F (25 C)
Dew Point: 75 F (24 C)
Relative Humidity: 94%
Pressure (altimeter): 29.83 in. Hg (1010 hPa)
ob: YPTN 171930Z AUTO 13005KT 9999 // OVC014 25/24 Q1010 RF00.0/000.2
cycle: 19

Station Type Date Time Source
YPTN TAF 2024/04/17 18:18 UTC NOAA